sensor_id;sensor_type;location;lat;lon;timestamp;P1;durP1;ratioP1;P2;durP2;ratioP2
80711;SDS011;70078;51.596;5.678;2024-03-23T00:55:50;6.55;;;3.05;;
80711;SDS011;70078;51.596;5.678;2024-03-23T00:58:15;7.45;;;3.42;;
80711;SDS011;70078;51.596;5.678;2024-03-23T01:03:06;7.35;;;3.58;;
80711;SDS011;70078;51.596;5.678;2024-03-23T01:05:31;6.35;;;3.00;;
80711;SDS011;70078;51.596;5.678;2024-03-23T01:07:56;5.65;;;3.60;;
80711;SDS011;70078;51.596;5.678;2024-03-23T01:10:22;5.30;;;2.75;;
80711;SDS011;70078;51.596;5.678;2024-03-23T01:12:47;4.25;;;2.63;;
80711;SDS011;70078;51.596;5.678;2024-03-23T01:15:12;6.95;;;3.00;;
80711;SDS011;70078;51.596;5.678;2024-03-23T01:17:38;10.13;;;2.67;;
80711;SDS011;70078;51.596;5.678;2024-03-23T01:20:03;7.80;;;3.40;;
80711;SDS011;70078;51.596;5.678;2024-03-23T01:22:29;8.40;;;3.13;;
80711;SDS011;70078;51.596;5.678;2024-03-23T01:24:54;7.55;;;3.42;;
80711;SDS011;70078;51.596;5.678;2024-03-23T01:27:19;5.25;;;3.00;;
80711;SDS011;70078;51.596;5.678;2024-03-23T01:29:45;8.18;;;2.28;;
80711;SDS011;70078;51.596;5.678;2024-03-23T01:32:10;5.70;;;3.55;;
80711;SDS011;70078;51.596;5.678;2024-03-23T01:34:35;10.45;;;3.85;;
80711;SDS011;70078;51.596;5.678;2024-03-23T01:37:01;7.38;;;3.88;;
80711;SDS011;70078;51.596;5.678;2024-03-23T01:39:26;9.48;;;4.47;;
80711;SDS011;70078;51.596;5.678;2024-03-23T01:41:52;6.88;;;3.67;;
80711;SDS011;70078;51.596;5.678;2024-03-23T01:44:17;9.18;;;3.97;;
80711;SDS011;70078;51.596;5.678;2024-03-23T01:46:43;7.65;;;3.85;;
80711;SDS011;70078;51.596;5.678;2024-03-23T01:49:09;6.07;;;3.45;;
80711;SDS011;70078;51.596;5.678;2024-03-23T01:51:35;6.00;;;2.60;;
80711;SDS011;70078;51.596;5.678;2024-03-23T01:54:01;7.35;;;3.15;;
80711;SDS011;70078;51.596;5.678;2024-03-23T01:56:32;9.60;;;3.47;;
80711;SDS011;70078;51.596;5.678;2024-03-23T01:59:00;9.57;;;3.10;;
80711;SDS011;70078;51.596;5.678;2024-03-23T02:01:29;8.20;;;3.00;;
80711;SDS011;70078;51.596;5.678;2024-03-23T02:03:54;8.00;;;3.28;;
80711;SDS011;70078;51.596;5.678;2024-03-23T02:06:20;7.97;;;3.03;;
80711;SDS011;70078;51.596;5.678;2024-03-23T02:08:45;6.85;;;3.38;;
80711;SDS011;70078;51.596;5.678;2024-03-23T02:11:11;5.82;;;2.78;;
80711;SDS011;70078;51.596;5.678;2024-03-23T02:13:36;5.13;;;2.35;;
80711;SDS011;70078;51.596;5.678;2024-03-23T02:16:01;10.45;;;3.05;;
80711;SDS011;70078;51.596;5.678;2024-03-23T02:18:27;8.95;;;3.58;;
80711;SDS011;70078;51.596;5.678;2024-03-23T02:20:52;7.70;;;3.08;;
80711;SDS011;70078;51.596;5.678;2024-03-23T02:23:18;12.10;;;3.55;;
80711;SDS011;70078;51.596;5.678;2024-03-23T02:25:43;10.07;;;3.17;;
80711;SDS011;70078;51.596;5.678;2024-03-23T02:28:09;7.60;;;2.70;;
80711;SDS011;70078;51.596;5.678;2024-03-23T02:30:35;11.63;;;3.17;;
80711;SDS011;70078;51.596;5.678;2024-03-23T02:33:00;6.15;;;2.50;;
80711;SDS011;70078;51.596;5.678;2024-03-23T02:35:26;8.80;;;3.35;;
80711;SDS011;70078;51.596;5.678;2024-03-23T02:37:51;8.43;;;3.65;;
80711;SDS011;70078;51.596;5.678;2024-03-23T02:40:17;10.63;;;4.10;;
80711;SDS011;70078;51.596;5.678;2024-03-23T02:42:42;8.63;;;3.92;;
80711;SDS011;70078;51.596;5.678;2024-03-23T02:45:08;8.68;;;4.20;;
80711;SDS011;70078;51.596;5.678;2024-03-23T02:47:34;6.50;;;3.47;;
80711;SDS011;70078;51.596;5.678;2024-03-23T02:49:59;10.77;;;3.10;;
80711;SDS011;70078;51.596;5.678;2024-03-23T02:52:25;5.68;;;3.60;;
80711;SDS011;70078;51.596;5.678;2024-03-23T02:54:50;8.25;;;3.38;;
80711;SDS011;70078;51.596;5.678;2024-03-23T02:57:15;9.70;;;3.92;;
80711;SDS011;70078;51.596;5.678;2024-03-23T02:59:41;7.20;;;2.92;;
80711;SDS011;70078;51.596;5.678;2024-03-23T03:02:06;7.60;;;3.17;;
80711;SDS011;70078;51.596;5.678;2024-03-23T03:04:32;7.18;;;3.03;;
80711;SDS011;70078;51.596;5.678;2024-03-23T03:06:57;8.10;;;3.55;;
80711;SDS011;70078;51.596;5.678;2024-03-23T03:09:23;6.03;;;3.15;;
80711;SDS011;70078;51.596;5.678;2024-03-23T03:11:49;8.73;;;3.75;;
80711;SDS011;70078;51.596;5.678;2024-03-23T03:14:14;6.80;;;3.67;;
80711;SDS011;70078;51.596;5.678;2024-03-23T03:16:39;10.80;;;3.40;;
80711;SDS011;70078;51.596;5.678;2024-03-23T03:19:05;8.90;;;4.05;;
80711;SDS011;70078;51.596;5.678;2024-03-23T03:23:57;13.77;;;3.80;;
80711;SDS011;70078;51.596;5.678;2024-03-23T03:26:22;9.27;;;3.80;;
80711;SDS011;70078;51.596;5.678;2024-03-23T03:28:48;11.18;;;3.35;;
80711;SDS011;70078;51.596;5.678;2024-03-23T03:31:14;6.35;;;3.53;;
80711;SDS011;70078;51.596;5.678;2024-03-23T03:33:41;8.75;;;3.42;;
80711;SDS011;70078;51.596;5.678;2024-03-23T03:36:07;4.82;;;3.25;;
80711;SDS011;70078;51.596;5.678;2024-03-23T03:38:32;9.10;;;3.40;;
80711;SDS011;70078;51.596;5.678;2024-03-23T03:41:00;7.70;;;2.90;;
80711;SDS011;70078;51.596;5.678;2024-03-23T03:43:25;6.80;;;3.00;;
80711;SDS011;70078;51.596;5.678;2024-03-23T03:45:51;10.35;;;3.47;;
80711;SDS011;70078;51.596;5.678;2024-03-23T03:48:17;10.35;;;3.83;;
80711;SDS011;70078;51.596;5.678;2024-03-23T03:50:43;7.10;;;3.55;;
80711;SDS011;70078;51.596;5.678;2024-03-23T03:53:08;8.07;;;4.10;;
80711;SDS011;70078;51.596;5.678;2024-03-23T03:55:33;9.43;;;3.38;;
80711;SDS011;70078;51.596;5.678;2024-03-23T03:57:59;6.10;;;3.50;;
80711;SDS011;70078;51.596;5.678;2024-03-23T04:00:24;8.95;;;2.88;;
80711;SDS011;70078;51.596;5.678;2024-03-23T04:02:50;11.77;;;3.88;;
80711;SDS011;70078;51.596;5.678;2024-03-23T04:05:15;7.25;;;3.85;;
80711;SDS011;70078;51.596;5.678;2024-03-23T04:07:42;8.60;;;3.53;;
80711;SDS011;70078;51.596;5.678;2024-03-23T04:12:33;5.35;;;2.90;;
80711;SDS011;70078;51.596;5.678;2024-03-23T04:15:01;5.70;;;2.78;;
80711;SDS011;70078;51.596;5.678;2024-03-23T04:17:28;5.93;;;3.13;;
80711;SDS011;70078;51.596;5.678;2024-03-23T04:19:56;6.35;;;2.90;;
80711;SDS011;70078;51.596;5.678;2024-03-23T04:22:22;6.68;;;2.95;;
80711;SDS011;70078;51.596;5.678;2024-03-23T04:24:49;9.88;;;2.58;;
80711;SDS011;70078;51.596;5.678;2024-03-23T04:27:14;10.52;;;3.13;;
80711;SDS011;70078;51.596;5.678;2024-03-23T04:29:39;7.43;;;2.50;;
80711;SDS011;70078;51.596;5.678;2024-03-23T04:32:05;7.55;;;2.20;;
80711;SDS011;70078;51.596;5.678;2024-03-23T04:34:31;6.28;;;2.80;;
80711;SDS011;70078;51.596;5.678;2024-03-23T04:36:57;6.75;;;2.17;;
80711;SDS011;70078;51.596;5.678;2024-03-23T04:39:23;6.35;;;2.97;;
80711;SDS011;70078;51.596;5.678;2024-03-23T04:41:48;8.48;;;2.65;;
80711;SDS011;70078;51.596;5.678;2024-03-23T04:44:14;10.38;;;3.13;;
80711;SDS011;70078;51.596;5.678;2024-03-23T04:46:39;7.53;;;2.28;;
80711;SDS011;70078;51.596;5.678;2024-03-23T04:49:05;6.65;;;3.35;;
80711;SDS011;70078;51.596;5.678;2024-03-23T04:51:35;6.20;;;2.53;;
80711;SDS011;70078;51.596;5.678;2024-03-23T04:54:01;5.68;;;2.53;;
80711;SDS011;70078;51.596;5.678;2024-03-23T04:56:26;5.57;;;2.55;;
80711;SDS011;70078;51.596;5.678;2024-03-23T04:58:51;6.97;;;2.85;;
80711;SDS011;70078;51.596;5.678;2024-03-23T05:01:16;7.28;;;3.17;;
80711;SDS011;70078;51.596;5.678;2024-03-23T05:03:42;6.90;;;3.17;;
80711;SDS011;70078;51.596;5.678;2024-03-23T05:06:07;8.82;;;2.90;;
80711;SDS011;70078;51.596;5.678;2024-03-23T05:08:33;5.35;;;2.97;;
80711;SDS011;70078;51.596;5.678;2024-03-23T05:10:58;6.88;;;3.20;;
80711;SDS011;70078;51.596;5.678;2024-03-23T05:13:23;10.93;;;2.70;;
80711;SDS011;70078;51.596;5.678;2024-03-23T05:15:55;8.52;;;2.70;;
80711;SDS011;70078;51.596;5.678;2024-03-23T05:18:21;10.80;;;3.00;;
80711;SDS011;70078;51.596;5.678;2024-03-23T05:20:47;7.63;;;3.72;;
80711;SDS011;70078;51.596;5.678;2024-03-23T05:23:12;11.27;;;3.58;;
80711;SDS011;70078;51.596;5.678;2024-03-23T05:25:37;7.63;;;3.03;;
80711;SDS011;70078;51.596;5.678;2024-03-23T05:28:03;6.60;;;2.58;;
80711;SDS011;70078;51.596;5.678;2024-03-23T05:30:28;7.57;;;2.40;;
80711;SDS011;70078;51.596;5.678;2024-03-23T05:32:53;6.28;;;3.28;;
80711;SDS011;70078;51.596;5.678;2024-03-23T05:35:19;7.57;;;3.70;;
80711;SDS011;70078;51.596;5.678;2024-03-23T05:37:44;7.85;;;3.30;;
80711;SDS011;70078;51.596;5.678;2024-03-23T05:40:10;8.77;;;3.47;;
80711;SDS011;70078;51.596;5.678;2024-03-23T05:42:37;9.30;;;2.92;;
80711;SDS011;70078;51.596;5.678;2024-03-23T05:45:03;14.32;;;3.58;;
80711;SDS011;70078;51.596;5.678;2024-03-23T05:47:31;10.85;;;3.60;;
80711;SDS011;70078;51.596;5.678;2024-03-23T05:49:56;7.30;;;3.22;;
80711;SDS011;70078;51.596;5.678;2024-03-23T05:52:22;5.30;;;3.35;;
80711;SDS011;70078;51.596;5.678;2024-03-23T05:54:47;11.73;;;4.82;;
80711;SDS011;70078;51.596;5.678;2024-03-23T05:57:12;9.00;;;4.20;;
80711;SDS011;70078;51.596;5.678;2024-03-23T05:59:38;9.43;;;3.60;;
80711;SDS011;70078;51.596;5.678;2024-03-23T06:02:03;9.65;;;3.88;;
80711;SDS011;70078;51.596;5.678;2024-03-23T06:04:29;11.40;;;4.07;;
80711;SDS011;70078;51.596;5.678;2024-03-23T06:06:54;15.05;;;5.05;;
80711;SDS011;70078;51.596;5.678;2024-03-23T06:09:20;10.40;;;4.93;;
80711;SDS011;70078;51.596;5.678;2024-03-23T06:11:45;12.82;;;4.45;;
80711;SDS011;70078;51.596;5.678;2024-03-23T06:14:11;13.73;;;4.53;;
80711;SDS011;70078;51.596;5.678;2024-03-23T06:16:36;10.10;;;4.75;;
80711;SDS011;70078;51.596;5.678;2024-03-23T06:19:03;12.98;;;4.18;;
80711;SDS011;70078;51.596;5.678;2024-03-23T06:21:29;11.65;;;4.50;;
80711;SDS011;70078;51.596;5.678;2024-03-23T06:23:55;10.07;;;4.68;;
80711;SDS011;70078;51.596;5.678;2024-03-23T06:26:20;12.57;;;4.82;;
80711;SDS011;70078;51.596;5.678;2024-03-23T06:28:46;9.85;;;4.22;;
80711;SDS011;70078;51.596;5.678;2024-03-23T06:31:12;11.00;;;4.07;;
80711;SDS011;70078;51.596;5.678;2024-03-23T06:33:38;40.08;;;12.70;;
80711;SDS011;70078;51.596;5.678;2024-03-23T06:36:05;31.70;;;11.10;;
80711;SDS011;70078;51.596;5.678;2024-03-23T06:38:31;9.48;;;3.88;;
80711;SDS011;70078;51.596;5.678;2024-03-23T06:40:56;10.88;;;4.85;;
80711;SDS011;70078;51.596;5.678;2024-03-23T06:43:21;6.85;;;3.45;;
80711;SDS011;70078;51.596;5.678;2024-03-23T06:45:53;6.20;;;3.60;;
80711;SDS011;70078;51.596;5.678;2024-03-23T06:48:19;9.60;;;2.70;;
80711;SDS011;70078;51.596;5.678;2024-03-23T06:50:45;14.13;;;3.55;;
80711;SDS011;70078;51.596;5.678;2024-03-23T06:53:13;11.98;;;6.22;;
80711;SDS011;70078;51.596;5.678;2024-03-23T06:55:39;10.88;;;4.60;;
80711;SDS011;70078;51.596;5.678;2024-03-23T06:58:05;9.40;;;4.72;;
80711;SDS011;70078;51.596;5.678;2024-03-23T07:00:31;9.35;;;3.95;;
80711;SDS011;70078;51.596;5.678;2024-03-23T07:02:57;10.98;;;3.75;;
80711;SDS011;70078;51.596;5.678;2024-03-23T07:05:22;10.68;;;3.38;;
80711;SDS011;70078;51.596;5.678;2024-03-23T07:07:48;14.05;;;7.60;;
80711;SDS011;70078;51.596;5.678;2024-03-23T07:10:13;10.23;;;3.78;;
80711;SDS011;70078;51.596;5.678;2024-03-23T07:12:38;10.30;;;4.03;;
80711;SDS011;70078;51.596;5.678;2024-03-23T07:15:04;10.57;;;3.63;;
80711;SDS011;70078;51.596;5.678;2024-03-23T07:17:29;8.13;;;2.63;;
80711;SDS011;70078;51.596;5.678;2024-03-23T07:19:55;11.25;;;3.85;;
80711;SDS011;70078;51.596;5.678;2024-03-23T07:22:20;10.15;;;3.95;;
80711;SDS011;70078;51.596;5.678;2024-03-23T07:24:46;7.43;;;2.63;;
80711;SDS011;70078;51.596;5.678;2024-03-23T07:27:12;6.10;;;2.45;;
80711;SDS011;70078;51.596;5.678;2024-03-23T07:29:37;7.65;;;2.75;;
80711;SDS011;70078;51.596;5.678;2024-03-23T07:32:02;8.73;;;2.58;;
80711;SDS011;70078;51.596;5.678;2024-03-23T07:34:28;8.48;;;2.80;;
80711;SDS011;70078;51.596;5.678;2024-03-23T07:36:53;4.43;;;2.35;;
80711;SDS011;70078;51.596;5.678;2024-03-23T07:39:19;10.85;;;2.67;;
80711;SDS011;70078;51.596;5.678;2024-03-23T07:41:44;6.28;;;2.75;;
80711;SDS011;70078;51.596;5.678;2024-03-23T07:44:10;5.20;;;2.88;;
80711;SDS011;70078;51.596;5.678;2024-03-23T07:46:36;5.00;;;2.42;;
80711;SDS011;70078;51.596;5.678;2024-03-23T07:49:01;7.65;;;2.55;;
80711;SDS011;70078;51.596;5.678;2024-03-23T07:51:26;7.45;;;2.63;;
80711;SDS011;70078;51.596;5.678;2024-03-23T07:53:52;6.50;;;2.13;;
80711;SDS011;70078;51.596;5.678;2024-03-23T07:56:18;7.47;;;2.13;;
80711;SDS011;70078;51.596;5.678;2024-03-23T08:01:14;5.93;;;2.60;;
80711;SDS011;70078;51.596;5.678;2024-03-23T08:03:41;6.78;;;2.65;;
80711;SDS011;70078;51.596;5.678;2024-03-23T08:06:18;4.93;;;2.47;;
80711;SDS011;70078;51.596;5.678;2024-03-23T08:08:45;6.60;;;2.30;;
80711;SDS011;70078;51.596;5.678;2024-03-23T08:11:12;10.35;;;3.03;;
80711;SDS011;70078;51.596;5.678;2024-03-23T08:13:39;4.75;;;2.55;;
80711;SDS011;70078;51.596;5.678;2024-03-23T08:16:05;12.10;;;3.17;;
80711;SDS011;70078;51.596;5.678;2024-03-23T08:18:31;5.68;;;2.45;;
80711;SDS011;70078;51.596;5.678;2024-03-23T08:20:57;7.20;;;2.40;;
80711;SDS011;70078;51.596;5.678;2024-03-23T08:23:24;15.52;;;3.75;;
80711;SDS011;70078;51.596;5.678;2024-03-23T08:25:49;4.85;;;2.67;;
80711;SDS011;70078;51.596;5.678;2024-03-23T08:28:15;8.50;;;3.08;;
80711;SDS011;70078;51.596;5.678;2024-03-23T08:30:40;8.57;;;2.28;;
80711;SDS011;70078;51.596;5.678;2024-03-23T08:33:05;8.68;;;2.58;;
80711;SDS011;70078;51.596;5.678;2024-03-23T08:35:31;10.95;;;2.88;;
80711;SDS011;70078;51.596;5.678;2024-03-23T08:37:56;9.68;;;2.72;;
80711;SDS011;70078;51.596;5.678;2024-03-23T08:40:21;10.85;;;2.97;;
80711;SDS011;70078;51.596;5.678;2024-03-23T08:42:47;9.50;;;3.45;;
80711;SDS011;70078;51.596;5.678;2024-03-23T08:45:12;8.27;;;4.13;;
80711;SDS011;70078;51.596;5.678;2024-03-23T08:47:38;5.43;;;2.53;;
80711;SDS011;70078;51.596;5.678;2024-03-23T08:50:03;7.07;;;2.35;;
80711;SDS011;70078;51.596;5.678;2024-03-23T08:52:29;8.45;;;2.97;;
80711;SDS011;70078;51.596;5.678;2024-03-23T08:54:55;6.75;;;2.50;;
80711;SDS011;70078;51.596;5.678;2024-03-23T08:57:21;8.80;;;2.20;;
80711;SDS011;70078;51.596;5.678;2024-03-23T08:59:47;6.72;;;2.20;;
80711;SDS011;70078;51.596;5.678;2024-03-23T09:02:13;7.50;;;3.00;;
80711;SDS011;70078;51.596;5.678;2024-03-23T09:04:38;7.50;;;3.05;;
80711;SDS011;70078;51.596;5.678;2024-03-23T09:07:03;6.40;;;2.03;;
80711;SDS011;70078;51.596;5.678;2024-03-23T09:09:29;5.03;;;2.10;;
80711;SDS011;70078;51.596;5.678;2024-03-23T09:14:21;6.27;;;2.90;;
80711;SDS011;70078;51.596;5.678;2024-03-23T09:16:49;4.15;;;1.88;;
80711;SDS011;70078;51.596;5.678;2024-03-23T09:19:16;5.93;;;2.72;;
80711;SDS011;70078;51.596;5.678;2024-03-23T09:21:42;8.68;;;2.65;;
80711;SDS011;70078;51.596;5.678;2024-03-23T09:26:32;7.78;;;2.05;;
80711;SDS011;70078;51.596;5.678;2024-03-23T09:28:58;4.82;;;2.00;;
80711;SDS011;70078;51.596;5.678;2024-03-23T09:33:48;4.97;;;2.45;;
80711;SDS011;70078;51.596;5.678;2024-03-23T09:38:40;8.98;;;1.77;;
80711;SDS011;70078;51.596;5.678;2024-03-23T09:41:06;7.00;;;1.98;;
80711;SDS011;70078;51.596;5.678;2024-03-23T09:43:33;3.15;;;1.50;;
80711;SDS011;70078;51.596;5.678;2024-03-23T09:45:58;5.03;;;1.65;;
80711;SDS011;70078;51.596;5.678;2024-03-23T09:48:24;5.57;;;1.58;;
80711;SDS011;70078;51.596;5.678;2024-03-23T09:50:49;4.63;;;2.00;;
80711;SDS011;70078;51.596;5.678;2024-03-23T09:55:41;7.55;;;2.55;;
80711;SDS011;70078;51.596;5.678;2024-03-23T09:58:07;6.20;;;2.25;;
80711;SDS011;70078;51.596;5.678;2024-03-23T10:02:59;9.30;;;1.75;;
80711;SDS011;70078;51.596;5.678;2024-03-23T10:05:27;3.97;;;1.92;;
80711;SDS011;70078;51.596;5.678;2024-03-23T10:07:54;6.15;;;2.15;;
80711;SDS011;70078;51.596;5.678;2024-03-23T10:12:47;5.47;;;2.25;;
80711;SDS011;70078;51.596;5.678;2024-03-23T10:15:22;12.10;;;3.28;;
80711;SDS011;70078;51.596;5.678;2024-03-23T10:17:49;8.43;;;2.63;;
80711;SDS011;70078;51.596;5.678;2024-03-23T10:22:48;8.13;;;2.63;;
80711;SDS011;70078;51.596;5.678;2024-03-23T10:25:14;5.05;;;2.28;;
80711;SDS011;70078;51.596;5.678;2024-03-23T10:27:40;6.00;;;3.75;;
80711;SDS011;70078;51.596;5.678;2024-03-23T10:30:13;6.22;;;3.95;;
80711;SDS011;70078;51.596;5.678;2024-03-23T10:32:42;6.03;;;2.25;;
80711;SDS011;70078;51.596;5.678;2024-03-23T10:35:14;6.97;;;2.40;;
80711;SDS011;70078;51.596;5.678;2024-03-23T10:37:41;3.58;;;1.80;;
80711;SDS011;70078;51.596;5.678;2024-03-23T10:40:08;5.72;;;2.40;;
80711;SDS011;70078;51.596;5.678;2024-03-23T10:42:35;4.93;;;1.92;;
80711;SDS011;70078;51.596;5.678;2024-03-23T10:45:02;4.07;;;2.25;;
80711;SDS011;70078;51.596;5.678;2024-03-23T10:47:29;4.70;;;2.30;;
80711;SDS011;70078;51.596;5.678;2024-03-23T10:52:20;5.33;;;1.97;;
80711;SDS011;70078;51.596;5.678;2024-03-23T10:54:46;5.18;;;1.92;;
80711;SDS011;70078;51.596;5.678;2024-03-23T10:57:16;2.90;;;1.60;;
80711;SDS011;70078;51.596;5.678;2024-03-23T10:59:45;8.38;;;1.98;;
80711;SDS011;70078;51.596;5.678;2024-03-23T11:02:20;4.72;;;1.80;;
80711;SDS011;70078;51.596;5.678;2024-03-23T11:04:46;5.18;;;0.93;;
80711;SDS011;70078;51.596;5.678;2024-03-23T11:09:48;6.20;;;2.08;;
80711;SDS011;70078;51.596;5.678;2024-03-23T11:14:52;4.70;;;2.17;;
80711;SDS011;70078;51.596;5.678;2024-03-23T11:17:36;4.18;;;1.60;;
80711;SDS011;70078;51.596;5.678;2024-03-23T11:25:15;4.40;;;1.77;;
80711;SDS011;70078;51.596;5.678;2024-03-23T11:27:41;3.38;;;1.85;;
80711;SDS011;70078;51.596;5.678;2024-03-23T11:30:26;4.60;;;1.75;;
80711;SDS011;70078;51.596;5.678;2024-03-23T11:32:56;3.60;;;1.83;;
80711;SDS011;70078;51.596;5.678;2024-03-23T11:35:32;5.70;;;2.50;;
80711;SDS011;70078;51.596;5.678;2024-03-23T11:38:02;3.05;;;1.60;;
80711;SDS011;70078;51.596;5.678;2024-03-23T11:40:32;5.30;;;1.88;;
80711;SDS011;70078;51.596;5.678;2024-03-23T11:42:59;3.15;;;1.67;;
80711;SDS011;70078;51.596;5.678;2024-03-23T11:45:29;4.30;;;1.75;;
80711;SDS011;70078;51.596;5.678;2024-03-23T11:48:06;3.50;;;1.30;;
80711;SDS011;70078;51.596;5.678;2024-03-23T11:50:32;5.10;;;1.08;;
80711;SDS011;70078;51.596;5.678;2024-03-23T11:55:42;2.95;;;1.30;;
80711;SDS011;70078;51.596;5.678;2024-03-23T11:58:08;3.47;;;1.42;;
80711;SDS011;70078;51.596;5.678;2024-03-23T12:00:35;4.82;;;2.13;;
80711;SDS011;70078;51.596;5.678;2024-03-23T12:05:29;7.25;;;2.28;;
80711;SDS011;70078;51.596;5.678;2024-03-23T12:08:14;3.92;;;1.33;;
80711;SDS011;70078;51.596;5.678;2024-03-23T12:13:06;4.18;;;1.80;;
80711;SDS011;70078;51.596;5.678;2024-03-23T12:15:31;3.22;;;1.77;;
80711;SDS011;70078;51.596;5.678;2024-03-23T12:18:09;5.13;;;1.88;;
80711;SDS011;70078;51.596;5.678;2024-03-23T12:20:35;4.75;;;2.00;;
80711;SDS011;70078;51.596;5.678;2024-03-23T12:23:06;5.25;;;1.65;;
80711;SDS011;70078;51.596;5.678;2024-03-23T12:25:36;5.53;;;1.83;;
80711;SDS011;70078;51.596;5.678;2024-03-23T12:28:01;3.33;;;1.58;;
80711;SDS011;70078;51.596;5.678;2024-03-23T12:30:27;3.50;;;1.48;;
80711;SDS011;70078;51.596;5.678;2024-03-23T12:32:53;2.80;;;1.08;;
80711;SDS011;70078;51.596;5.678;2024-03-23T12:35:18;4.30;;;1.88;;
80711;SDS011;70078;51.596;5.678;2024-03-23T12:37:44;3.95;;;1.92;;
80711;SDS011;70078;51.596;5.678;2024-03-23T12:42:35;8.05;;;1.85;;
80711;SDS011;70078;51.596;5.678;2024-03-23T12:47:25;3.92;;;1.95;;
80711;SDS011;70078;51.596;5.678;2024-03-23T12:49:52;4.95;;;2.05;;
80711;SDS011;70078;51.596;5.678;2024-03-23T12:54:42;4.88;;;2.17;;
80711;SDS011;70078;51.596;5.678;2024-03-23T12:59:33;4.78;;;2.00;;
80711;SDS011;70078;51.596;5.678;2024-03-23T13:02:00;3.13;;;1.92;;
80711;SDS011;70078;51.596;5.678;2024-03-23T13:06:51;4.85;;;1.67;;
80711;SDS011;70078;51.596;5.678;2024-03-23T13:09:16;3.95;;;2.42;;
80711;SDS011;70078;51.596;5.678;2024-03-23T13:11:42;4.45;;;1.70;;
80711;SDS011;70078;51.596;5.678;2024-03-23T13:16:32;3.47;;;1.92;;
80711;SDS011;70078;51.596;5.678;2024-03-23T13:18:58;3.55;;;1.35;;
80711;SDS011;70078;51.596;5.678;2024-03-23T13:21:23;8.13;;;1.92;;
80711;SDS011;70078;51.596;5.678;2024-03-23T13:23:49;2.85;;;1.60;;
80711;SDS011;70078;51.596;5.678;2024-03-23T13:26:15;3.72;;;1.90;;
80711;SDS011;70078;51.596;5.678;2024-03-23T13:28:41;5.30;;;1.58;;
80711;SDS011;70078;51.596;5.678;2024-03-23T13:33:33;5.00;;;2.08;;
80711;SDS011;70078;51.596;5.678;2024-03-23T13:35:58;6.68;;;2.17;;
80711;SDS011;70078;51.596;5.678;2024-03-23T13:38:24;8.00;;;1.65;;
80711;SDS011;70078;51.596;5.678;2024-03-23T13:43:20;4.05;;;1.58;;
80711;SDS011;70078;51.596;5.678;2024-03-23T13:45:49;2.72;;;1.65;;
80711;SDS011;70078;51.596;5.678;2024-03-23T13:48:22;3.50;;;1.60;;
80711;SDS011;70078;51.596;5.678;2024-03-23T13:51:04;4.10;;;1.67;;
80711;SDS011;70078;51.596;5.678;2024-03-23T13:53:30;5.30;;;1.52;;
80711;SDS011;70078;51.596;5.678;2024-03-23T13:55:57;4.70;;;1.90;;
80711;SDS011;70078;51.596;5.678;2024-03-23T13:58:23;4.03;;;1.60;;
80711;SDS011;70078;51.596;5.678;2024-03-23T14:00:51;4.68;;;1.88;;
80711;SDS011;70078;51.596;5.678;2024-03-23T14:03:16;6.15;;;2.40;;
80711;SDS011;70078;51.596;5.678;2024-03-23T14:05:43;4.47;;;1.63;;
80711;SDS011;70078;51.596;5.678;2024-03-23T14:08:09;3.35;;;1.60;;
80711;SDS011;70078;51.596;5.678;2024-03-23T14:10:35;5.85;;;1.48;;
80711;SDS011;70078;51.596;5.678;2024-03-23T14:13:01;5.95;;;2.10;;
80711;SDS011;70078;51.596;5.678;2024-03-23T14:15:28;3.50;;;2.08;;
80711;SDS011;70078;51.596;5.678;2024-03-23T14:20:20;5.95;;;1.83;;
80711;SDS011;70078;51.596;5.678;2024-03-23T14:22:46;3.92;;;1.10;;
80711;SDS011;70078;51.596;5.678;2024-03-23T14:27:37;5.95;;;1.90;;
80711;SDS011;70078;51.596;5.678;2024-03-23T14:32:28;6.97;;;2.03;;
80711;SDS011;70078;51.596;5.678;2024-03-23T14:34:56;4.15;;;1.63;;
80711;SDS011;70078;51.596;5.678;2024-03-23T14:37:21;5.32;;;2.05;;
80711;SDS011;70078;51.596;5.678;2024-03-23T14:42:12;6.82;;;2.67;;
80711;SDS011;70078;51.596;5.678;2024-03-23T14:47:03;5.67;;;1.90;;
80711;SDS011;70078;51.596;5.678;2024-03-23T14:51:53;4.93;;;1.80;;
80711;SDS011;70078;51.596;5.678;2024-03-23T14:54:18;6.85;;;1.23;;
80711;SDS011;70078;51.596;5.678;2024-03-23T14:56:44;3.45;;;2.35;;
80711;SDS011;70078;51.596;5.678;2024-03-23T14:59:09;5.88;;;1.55;;
80711;SDS011;70078;51.596;5.678;2024-03-23T15:01:34;3.95;;;1.45;;
80711;SDS011;70078;51.596;5.678;2024-03-23T15:04:00;2.55;;;1.25;;
80711;SDS011;70078;51.596;5.678;2024-03-23T15:06:25;3.33;;;2.05;;
80711;SDS011;70078;51.596;5.678;2024-03-23T15:08:51;2.83;;;0.93;;
80711;SDS011;70078;51.596;5.678;2024-03-23T15:11:16;4.30;;;1.45;;
80711;SDS011;70078;51.596;5.678;2024-03-23T15:13:44;2.55;;;1.30;;
80711;SDS011;70078;51.596;5.678;2024-03-23T15:16:10;3.35;;;1.65;;
80711;SDS011;70078;51.596;5.678;2024-03-23T15:18:35;4.93;;;2.22;;
80711;SDS011;70078;51.596;5.678;2024-03-23T15:21:01;7.40;;;1.65;;
80711;SDS011;70078;51.596;5.678;2024-03-23T15:23:31;5.88;;;1.98;;
80711;SDS011;70078;51.596;5.678;2024-03-23T15:26:02;3.88;;;1.38;;
80711;SDS011;70078;51.596;5.678;2024-03-23T15:28:29;6.05;;;1.58;;
80711;SDS011;70078;51.596;5.678;2024-03-23T15:31:18;8.73;;;1.63;;
80711;SDS011;70078;51.596;5.678;2024-03-23T15:33:43;7.20;;;2.47;;
80711;SDS011;70078;51.596;5.678;2024-03-23T15:36:09;4.35;;;1.40;;
80711;SDS011;70078;51.596;5.678;2024-03-23T15:38:34;3.70;;;1.38;;
80711;SDS011;70078;51.596;5.678;2024-03-23T15:41:00;4.18;;;1.45;;
80711;SDS011;70078;51.596;5.678;2024-03-23T15:43:25;4.90;;;1.52;;
80711;SDS011;70078;51.596;5.678;2024-03-23T15:45:55;6.95;;;1.52;;
80711;SDS011;70078;51.596;5.678;2024-03-23T15:48:21;5.13;;;1.63;;
80711;SDS011;70078;51.596;5.678;2024-03-23T15:50:52;4.45;;;2.00;;
80711;SDS011;70078;51.596;5.678;2024-03-23T15:53:19;1.90;;;1.13;;
80711;SDS011;70078;51.596;5.678;2024-03-23T15:55:45;1.77;;;1.23;;
80711;SDS011;70078;51.596;5.678;2024-03-23T15:58:11;5.65;;;1.40;;
80711;SDS011;70078;51.596;5.678;2024-03-23T16:00:36;4.00;;;1.63;;
80711;SDS011;70078;51.596;5.678;2024-03-23T16:03:01;3.35;;;1.00;;
80711;SDS011;70078;51.596;5.678;2024-03-23T16:05:27;4.18;;;1.65;;
80711;SDS011;70078;51.596;5.678;2024-03-23T16:07:53;5.00;;;1.35;;
80711;SDS011;70078;51.596;5.678;2024-03-23T16:10:18;3.42;;;1.88;;
80711;SDS011;70078;51.596;5.678;2024-03-23T16:12:43;2.20;;;1.45;;
80711;SDS011;70078;51.596;5.678;2024-03-23T16:15:09;2.42;;;1.40;;
80711;SDS011;70078;51.596;5.678;2024-03-23T16:17:34;2.78;;;1.55;;
80711;SDS011;70078;51.596;5.678;2024-03-23T16:20:01;1.80;;;1.30;;
80711;SDS011;70078;51.596;5.678;2024-03-23T16:22:27;3.70;;;1.52;;
80711;SDS011;70078;51.596;5.678;2024-03-23T16:27:40;2.75;;;1.83;;
80711;SDS011;70078;51.596;5.678;2024-03-23T16:30:05;1.88;;;1.05;;
80711;SDS011;70078;51.596;5.678;2024-03-23T16:32:32;2.15;;;1.25;;
80711;SDS011;70078;51.596;5.678;2024-03-23T16:34:59;1.63;;;0.95;;
80711;SDS011;70078;51.596;5.678;2024-03-23T16:37:25;1.60;;;1.48;;
80711;SDS011;70078;51.596;5.678;2024-03-23T16:39:50;1.88;;;1.23;;
80711;SDS011;70078;51.596;5.678;2024-03-23T16:42:16;1.52;;;1.38;;
80711;SDS011;70078;51.596;5.678;2024-03-23T16:44:41;2.22;;;1.00;;
80711;SDS011;70078;51.596;5.678;2024-03-23T16:47:07;3.60;;;1.00;;
80711;SDS011;70078;51.596;5.678;2024-03-23T16:49:33;3.35;;;1.50;;
80711;SDS011;70078;51.596;5.678;2024-03-23T16:51:59;1.98;;;1.02;;
80711;SDS011;70078;51.596;5.678;2024-03-23T16:54:24;1.67;;;1.13;;
80711;SDS011;70078;51.596;5.678;2024-03-23T16:56:49;2.05;;;0.68;;
80711;SDS011;70078;51.596;5.678;2024-03-23T16:59:15;1.48;;;1.08;;
80711;SDS011;70078;51.596;5.678;2024-03-23T17:01:40;2.30;;;1.48;;